Porto Di Livorno — IFPU2 — position and weather

sailwx.info

Track history (hours):
 
Tides and Currents Weather Stations Pressure Air Temp Water Temp Dewpoint Dewpoint Depression Visibility Wind Speed Wind Dir Waves Ship Positions

Porto Di Livorno

Last reported at 2014-Oct-30 16:33 UTC. Time now 2014-Oct-30 23:51 UTC.
Position N 43°34' E 010°18'.

Length 24 m; draft 6.1 m.

Type: Tug. MMSI: 247194299.

Date/timePositionNaut miles runAvg speedWind from/ knotsBaromVisibWave heightAir tempDewpointWater temp
2014-Oct-30 16:33N 43°34' E 010°18'0 0.0
2014-Oct-30 15:34N 43°34' E 010°18'0 0.0
2014-Oct-30 14:34N 43°34' E 010°18'0 0.0
2014-Oct-30 13:33N 43°34' E 010°18'0 0.0
2014-Oct-30 12:33N 43°34' E 010°18'0 0.0
2014-Oct-30 11:33N 43°34' E 010°18'0 0.0
2014-Oct-30 10:33N 43°34' E 010°18'0 0.0
2014-Oct-30 09:33N 43°34' E 010°18'0 0.4
2014-Oct-30 08:33N 43°33' E 010°18'0 0.3
2014-Oct-30 07:33N 43°33' E 010°17'0 0.3
2014-Oct-30 06:33N 43°33' E 010°17'2 1.9
2014-Oct-30 05:33N 43°34' E 010°19'1 0.9
2014-Oct-30 04:33N 43°34' E 010°18'0 0.0
2014-Oct-30 03:33N 43°34' E 010°18'0 0.0
2014-Oct-30 02:33N 43°34' E 010°18'0 0.0
2014-Oct-30 01:33N 43°34' E 010°18'0 0.0
2014-Oct-30 00:33N 43°34' E 010°18'0 0.0
2014-Oct-29 23:33N 43°34' E 010°18'0 0.0
2014-Oct-29 22:33N 43°34' E 010°18'0 0.5
2014-Oct-29 21:33N 43°33' E 010°18'1 1.4
2014-Oct-29 20:33N 43°35' E 010°18'1 1.1
2014-Oct-29 19:33N 43°34' E 010°18'0 0.0
2014-Oct-29 18:33N 43°34' E 010°18'1 0.7
2014-Oct-29 17:33N 43°34' E 010°19'0 0.1
2014-Oct-29 10:33N 43°35' E 010°18'2 2.4
2014-Oct-29 09:33N 43°32' E 010°17'2 1.5
2014-Oct-29 08:33N 43°34' E 010°18'2 2.2
2014-Oct-29 07:33N 43°32' E 010°17'2 0.2
2014-Oct-28 18:33N 43°34' E 010°18'0 0.0
2014-Oct-28 17:33N 43°34' E 010°18'1 0.7
2014-Oct-28 16:33N 43°33' E 010°17'2 1.7
2014-Oct-28 15:33N 43°35' E 010°18'1 1.0
2014-Oct-28 14:33N 43°34' E 010°18'0 0.0
2014-Oct-28 13:33N 43°34' E 010°18'1 1.3
2014-Oct-28 12:33N 43°32' E 010°17'1 1.3
2014-Oct-28 11:33N 43°34' E 010°18'0 0.0
2014-Oct-28 10:33N 43°34' E 010°18'0 0.0
2014-Oct-28 09:33N 43°34' E 010°18'0 0.0
2014-Oct-28 08:33N 43°34' E 010°18'1 0.6
2014-Oct-28 07:34N 43°33' E 010°18'1 0.6
2014-Oct-28 06:34N 43°34' E 010°18'0 0.0
2014-Oct-28 05:34N 43°34' E 010°18'0 0.0
2014-Oct-28 04:34N 43°34' E 010°18'0 0.0
2014-Oct-28 03:34N 43°34' E 010°18'0 0.0
2014-Oct-28 02:34N 43°34' E 010°18'0 0.0
2014-Oct-28 01:34N 43°34' E 010°18'0 0.0
2014-Oct-28 00:33N 43°34' E 010°18'1 0.6
2014-Oct-27 23:34N 43°33' E 010°18'1 0.6
2014-Oct-27 22:34N 43°34' E 010°18'0 0.0
2014-Oct-27 21:34N 43°34' E 010°18'0 0.0
2014-Oct-27 20:34N 43°34' E 010°18'0 0.0
2014-Oct-27 19:34N 43°34' E 010°18'1 0.7
2014-Oct-27 18:34N 43°33' E 010°17'1 0.8
2014-Oct-27 17:33N 43°34' E 010°18'0 0.0
2014-Oct-26 16:31N 43°34' E 010°18'0 0.0
2014-Oct-26 15:33N 43°34' E 010°18'0 0.0
2014-Oct-26 14:34N 43°34' E 010°18'0 0.0
2014-Oct-26 13:34N 43°34' E 010°18'0 0.0
2014-Oct-26 12:34N 43°34' E 010°18'0 0.0
2014-Oct-26 11:34N 43°34' E 010°18'0 0.0
2014-Oct-26 10:34N 43°34' E 010°18'0 0.0
2014-Oct-26 09:33N 43°34' E 010°18'0 0.0
2014-Oct-26 08:34N 43°34' E 010°18'0 0.1
2014-Oct-26 07:34N 43°34' E 010°18'0 0.2
2014-Oct-26 06:33N 43°34' E 010°18'0 0.0
2014-Oct-26 05:34N 43°34' E 010°18'0 0.0
2014-Oct-26 04:34N 43°34' E 010°18'0 0.0
2014-Oct-26 03:34N 43°34' E 010°18'0 0.0
2014-Oct-26 02:34N 43°34' E 010°18'0 0.0
2014-Oct-26 01:34N 43°34' E 010°18'0 0.0
2014-Oct-26 00:34N 43°34' E 010°18'0 0.0
2014-Oct-25 23:33N 43°34' E 010°18'1 1.3
2014-Oct-25 22:33N 43°35' E 010°19'1 1.3
2014-Oct-25 21:33N 43°34' E 010°18'0 0.0
2014-Oct-25 20:34N 43°34' E 010°18'0 0.0
2014-Oct-25 19:33N 43°34' E 010°18'0 0.0
2014-Oct-25 18:34N 43°34' E 010°18'0 0.0
2014-Oct-25 17:34N 43°34' E 010°18'1 0.8
2014-Oct-25 16:34N 43°34' E 010°19'1 0.0
2014-Oct-24 15:33N 43°34' E 010°18'1 0.7
2014-Oct-24 14:33N 43°34' E 010°18'1 0.7
2014-Oct-24 13:33N 43°34' E 010°18'0 0.0
2014-Oct-24 12:33N 43°34' E 010°18'0 0.0
2014-Oct-24 11:33N 43°34' E 010°18'1 1.1
2014-Oct-24 10:33N 43°35' E 010°19'1 1.1
2014-Oct-24 09:33N 43°34' E 010°18'0 0.0
2014-Oct-24 08:33N 43°34' E 010°18'0 0.4
2014-Oct-24 07:33N 43°34' E 010°18'0 0.4
2014-Oct-24 06:33N 43°34' E 010°18'0 0.0
2014-Oct-24 05:33N 43°34' E 010°18'0 0.0
2014-Oct-24 04:33N 43°34' E 010°18'0 0.0
2014-Oct-22 15:33N 43°34' E 010°18'0 0.1
2014-Oct-22 14:33N 43°34' E 010°18'1 1.1
2014-Oct-22 13:33N 43°33' E 010°17'1 1.0
2014-Oct-22 12:33N 43°34' E 010°18'0 0.1
2014-Oct-22 11:33N 43°34' E 010°18'0 0.4
2014-Oct-22 10:33N 43°33' E 010°18'0 0.4
2014-Oct-22 09:33N 43°34' E 010°18'0 0.0
2014-Oct-22 08:33N 43°34' E 010°18'0 0.0
2014-Oct-22 07:33N 43°34' E 010°18'0 0.0
2014-Oct-22 06:33N 43°34' E 010°18'1 0.7
2014-Oct-22 05:33N 43°34' E 010°19'1 1.1
2014-Oct-22 04:33N 43°33' E 010°18'0 0.0
2014-Oct-21 16:33N 43°34' E 010°18'0 0.1
2014-Oct-21 15:33N 43°34' E 010°18'0 0.5
2014-Oct-21 14:33N 43°33' E 010°18'1 1.0
2014-Oct-21 13:34N 43°34' E 010°18'1 1.1
2014-Oct-21 12:33N 43°33' E 010°18'1 1.4
2014-Oct-21 11:33N 43°34' E 010°18'1 0.8
2014-Oct-21 10:33N 43°34' E 010°18'0 0.0
2014-Oct-21 09:34N 43°34' E 010°18'1 1.2
2014-Oct-21 08:34N 43°33' E 010°17'1 1.4
2014-Oct-21 07:33N 43°34' E 010°18'0 0.2
2014-Oct-21 06:33N 43°34' E 010°18'0 0.0
2014-Oct-21 05:33N 43°34' E 010°18'0 0.0
2014-Oct-21 04:33N 43°34' E 010°18'  
Track history (hours):
 
Tides and Currents Weather Stations Pressure Air Temp Water Temp Dewpoint Dewpoint Depression Visibility Wind Speed Wind Dir Waves Ship Positions

Porto Di Livorno

Last reported at 2014-Oct-30 16:33 UTC. Time now 2014-Oct-30 23:51 UTC.
Position N 43°34' E 010°18'.

Length 24 m; draft 6.1 m.

Type: Tug. MMSI: 247194299.

Date/timePositionNaut miles runAvg speedWind from/ knotsBaromVisibWave heightAir tempDewpointWater temp
2014-Oct-30 16:33N 43°34' E 010°18'0 0.0
2014-Oct-30 15:34N 43°34' E 010°18'0 0.0
2014-Oct-30 14:34N 43°34' E 010°18'0 0.0
2014-Oct-30 13:33N 43°34' E 010°18'0 0.0
2014-Oct-30 12:33N 43°34' E 010°18'0 0.0
2014-Oct-30 11:33N 43°34' E 010°18'0 0.0
2014-Oct-30 10:33N 43°34' E 010°18'0 0.0
2014-Oct-30 09:33N 43°34' E 010°18'0 0.4
2014-Oct-30 08:33N 43°33' E 010°18'0 0.3
2014-Oct-30 07:33N 43°33' E 010°17'0 0.3
2014-Oct-30 06:33N 43°33' E 010°17'2 1.9
2014-Oct-30 05:33N 43°34' E 010°19'1 0.9
2014-Oct-30 04:33N 43°34' E 010°18'0 0.0
2014-Oct-30 03:33N 43°34' E 010°18'0 0.0
2014-Oct-30 02:33N 43°34' E 010°18'0 0.0
2014-Oct-30 01:33N 43°34' E 010°18'0 0.0
2014-Oct-30 00:33N 43°34' E 010°18'0 0.0
2014-Oct-29 23:33N 43°34' E 010°18'0 0.0
2014-Oct-29 22:33N 43°34' E 010°18'0 0.5
2014-Oct-29 21:33N 43°33' E 010°18'1 1.4
2014-Oct-29 20:33N 43°35' E 010°18'1 1.1
2014-Oct-29 19:33N 43°34' E 010°18'0 0.0
2014-Oct-29 18:33N 43°34' E 010°18'1 0.7
2014-Oct-29 17:33N 43°34' E 010°19'0 0.1
2014-Oct-29 10:33N 43°35' E 010°18'2 2.4
2014-Oct-29 09:33N 43°32' E 010°17'2 1.5
2014-Oct-29 08:33N 43°34' E 010°18'2 2.2
2014-Oct-29 07:33N 43°32' E 010°17'2 0.2
2014-Oct-28 18:33N 43°34' E 010°18'0 0.0
2014-Oct-28 17:33N 43°34' E 010°18'1 0.7
2014-Oct-28 16:33N 43°33' E 010°17'2 1.7
2014-Oct-28 15:33N 43°35' E 010°18'1 1.0
2014-Oct-28 14:33N 43°34' E 010°18'0 0.0
2014-Oct-28 13:33N 43°34' E 010°18'1 1.3
2014-Oct-28 12:33N 43°32' E 010°17'1 1.3
2014-Oct-28 11:33N 43°34' E 010°18'0 0.0
2014-Oct-28 10:33N 43°34' E 010°18'0 0.0
2014-Oct-28 09:33N 43°34' E 010°18'0 0.0
2014-Oct-28 08:33N 43°34' E 010°18'1 0.6
2014-Oct-28 07:34N 43°33' E 010°18'1 0.6
2014-Oct-28 06:34N 43°34' E 010°18'0 0.0
2014-Oct-28 05:34N 43°34' E 010°18'0 0.0
2014-Oct-28 04:34N 43°34' E 010°18'0 0.0
2014-Oct-28 03:34N 43°34' E 010°18'0 0.0
2014-Oct-28 02:34N 43°34' E 010°18'0 0.0
2014-Oct-28 01:34N 43°34' E 010°18'0 0.0
2014-Oct-28 00:33N 43°34' E 010°18'1 0.6
2014-Oct-27 23:34N 43°33' E 010°18'1 0.6
2014-Oct-27 22:34N 43°34' E 010°18'0 0.0
2014-Oct-27 21:34N 43°34' E 010°18'0 0.0
2014-Oct-27 20:34N 43°34' E 010°18'0 0.0
2014-Oct-27 19:34N 43°34' E 010°18'1 0.7
2014-Oct-27 18:34N 43°33' E 010°17'1 0.8
2014-Oct-27 17:33N 43°34' E 010°18'0 0.0
2014-Oct-26 16:31N 43°34' E 010°18'0 0.0
2014-Oct-26 15:33N 43°34' E 010°18'0 0.0
2014-Oct-26 14:34N 43°34' E 010°18'0 0.0
2014-Oct-26 13:34N 43°34' E 010°18'0 0.0
2014-Oct-26 12:34N 43°34' E 010°18'0 0.0
2014-Oct-26 11:34N 43°34' E 010°18'0 0.0
2014-Oct-26 10:34N 43°34' E 010°18'0 0.0
2014-Oct-26 09:33N 43°34' E 010°18'0 0.0
2014-Oct-26 08:34N 43°34' E 010°18'0 0.1
2014-Oct-26 07:34N 43°34' E 010°18'0 0.2
2014-Oct-26 06:33N 43°34' E 010°18'0 0.0
2014-Oct-26 05:34N 43°34' E 010°18'0 0.0
2014-Oct-26 04:34N 43°34' E 010°18'0 0.0
2014-Oct-26 03:34N 43°34' E 010°18'0 0.0
2014-Oct-26 02:34N 43°34' E 010°18'0 0.0
2014-Oct-26 01:34N 43°34' E 010°18'0 0.0
2014-Oct-26 00:34N 43°34' E 010°18'0 0.0
2014-Oct-25 23:33N 43°34' E 010°18'1 1.3
2014-Oct-25 22:33N 43°35' E 010°19'1 1.3
2014-Oct-25 21:33N 43°34' E 010°18'0 0.0
2014-Oct-25 20:34N 43°34' E 010°18'0 0.0
2014-Oct-25 19:33N 43°34' E 010°18'0 0.0
2014-Oct-25 18:34N 43°34' E 010°18'0 0.0
2014-Oct-25 17:34N 43°34' E 010°18'1 0.8
2014-Oct-25 16:34N 43°34' E 010°19'1 0.0
2014-Oct-24 15:33N 43°34' E 010°18'1 0.7
2014-Oct-24 14:33N 43°34' E 010°18'1 0.7
2014-Oct-24 13:33N 43°34' E 010°18'0 0.0
2014-Oct-24 12:33N 43°34' E 010°18'0 0.0
2014-Oct-24 11:33N 43°34' E 010°18'1 1.1
2014-Oct-24 10:33N 43°35' E 010°19'1 1.1
2014-Oct-24 09:33N 43°34' E 010°18'0 0.0
2014-Oct-24 08:33N 43°34' E 010°18'0 0.4
2014-Oct-24 07:33N 43°34' E 010°18'0 0.4
2014-Oct-24 06:33N 43°34' E 010°18'0 0.0
2014-Oct-24 05:33N 43°34' E 010°18'0 0.0
2014-Oct-24 04:33N 43°34' E 010°18'0 0.0
2014-Oct-22 15:33N 43°34' E 010°18'0 0.1
2014-Oct-22 14:33N 43°34' E 010°18'1 1.1
2014-Oct-22 13:33N 43°33' E 010°17'1 1.0
2014-Oct-22 12:33N 43°34' E 010°18'0 0.1
2014-Oct-22 11:33N 43°34' E 010°18'0 0.4
2014-Oct-22 10:33N 43°33' E 010°18'0 0.4
2014-Oct-22 09:33N 43°34' E 010°18'0 0.0
2014-Oct-22 08:33N 43°34' E 010°18'0 0.0
2014-Oct-22 07:33N 43°34' E 010°18'0 0.0
2014-Oct-22 06:33N 43°34' E 010°18'1 0.7
2014-Oct-22 05:33N 43°34' E 010°19'1 1.1
2014-Oct-22 04:33N 43°33' E 010°18'0 0.0
2014-Oct-21 16:33N 43°34' E 010°18'0 0.1
2014-Oct-21 15:33N 43°34' E 010°18'0 0.5
2014-Oct-21 14:33N 43°33' E 010°18'1 1.0
2014-Oct-21 13:34N 43°34' E 010°18'1 1.1
2014-Oct-21 12:33N 43°33' E 010°18'1 1.4
2014-Oct-21 11:33N 43°34' E 010°18'1 0.8
2014-Oct-21 10:33N 43°34' E 010°18'0 0.0
2014-Oct-21 09:34N 43°34' E 010°18'1 1.2
2014-Oct-21 08:34N 43°33' E 010°17'1 1.4
2014-Oct-21 07:33N 43°34' E 010°18'0 0.2
2014-Oct-21 06:33N 43°34' E 010°18'0 0.0
2014-Oct-21 05:33N 43°34' E 010°18'0 0.0
2014-Oct-21 04:33N 43°34' E 010°18'  

Dump ship's entire track history